Terminal Aerodrome Forecast
Issued by NWS

Home | Current Version | Previous Version | Text Only | Print | Product List | Glossary On
Versions: 1 2 3 4 5 6 7 8 9 10 11 12 13 14 15
000
FTUS45 KRIW 261700
TAFCPR
TAF
KCPR 261740Z 2618/2718 08011KT P6SM VCSH SCT020 OVC035
      TEMPO 2618/2622 4SM -SN OVC020
     FM262200 08010KT P6SM VCSH FEW022 OVC035
     FM270300 10008KT P6SM BKN035
     FM270600 11007KT P6SM BKN040
     FM271000 VRB05KT P6SM SCT050=

USA.gov is the U.S. government's official web portal to all federal, state and local government web resources and services.